createdAt,value
2023-05-20T00:02:30.176Z,79.60
2023-05-20T00:05:16.372Z,79.70
2023-05-20T00:08:04.657Z,79.60
2023-05-20T00:10:49.886Z,79.60
2023-05-20T00:13:36.319Z,79.60
2023-05-20T00:16:24.240Z,79.70
2023-05-20T00:19:12.346Z,79.70
2023-05-20T00:21:58.281Z,79.70
2023-05-20T00:24:44.067Z,79.80
2023-05-20T00:27:29.259Z,79.70
2023-05-20T00:30:15.506Z,80.00
2023-05-20T00:33:08.748Z,79.70
2023-05-20T00:35:54.103Z,80.00
2023-05-20T00:38:39.616Z,80.10
2023-05-20T00:41:25.427Z,80.00
2023-05-20T00:44:10.814Z,80.40
2023-05-20T00:46:58.668Z,80.50
2023-05-20T00:49:50.517Z,80.70
2023-05-20T00:52:38.042Z,80.60
2023-05-20T00:55:23.249Z,81.00
2023-05-20T00:58:08.976Z,80.80
2023-05-20T01:00:55.081Z,80.80
2023-05-20T01:03:40.830Z,81.00
2023-05-20T01:06:28.159Z,81.10
2023-05-20T01:09:15.366Z,81.30
2023-05-20T01:12:04.545Z,81.30
2023-05-20T01:14:57.409Z,81.10
2023-05-20T01:17:53.057Z,81.10
2023-05-20T01:20:39.383Z,81.60
2023-05-20T01:23:37.870Z,81.70
2023-05-20T01:26:27.276Z,81.60
2023-05-20T01:29:13.863Z,81.80
2023-05-20T01:32:04.221Z,81.80
2023-05-20T01:34:54.400Z,81.80
2023-05-20T01:37:41.650Z,81.90
2023-05-20T01:40:27.911Z,82.20
2023-05-20T01:43:16.223Z,82.20
2023-05-20T01:46:06.525Z,82.20
2023-05-20T01:48:55.137Z,82.50
2023-05-20T01:51:41.836Z,82.70
2023-05-20T01:54:28.113Z,82.70
2023-05-20T01:57:14.061Z,82.70
2023-05-20T01:59:59.582Z,83.20
2023-05-20T02:02:45.069Z,83.20
2023-05-20T02:05:31.900Z,83.60
2023-05-20T02:08:18.118Z,84.40
2023-05-20T02:11:06.312Z,83.60
2023-05-20T02:13:51.993Z,84.00
2023-05-20T02:16:37.672Z,84.40
2023-05-20T02:19:23.829Z,84.30
2023-05-20T02:22:09.520Z,84.40
2023-05-20T02:24:55.126Z,84.20
2023-05-20T02:27:40.967Z,84.40
2023-05-20T02:30:27.599Z,84.60
2023-05-20T02:33:13.861Z,85.20
2023-05-20T02:35:59.344Z,85.00
2023-05-20T02:38:45.082Z,84.80
2023-05-20T02:41:30.556Z,84.70
2023-05-20T02:44:16.824Z,84.70
2023-05-20T02:47:02.733Z,84.70
2023-05-20T02:49:48.036Z,84.70
2023-05-20T02:52:33.179Z,84.70
2023-05-20T02:55:18.849Z,85.00
2023-05-20T02:58:04.499Z,85.20
2023-05-20T03:00:53.170Z,85.30
2023-05-20T03:03:40.819Z,85.40
2023-05-20T03:06:26.453Z,85.60
2023-05-20T03:09:11.961Z,85.50
2023-05-20T03:11:58.397Z,85.90
2023-05-20T03:14:46.759Z,85.70
2023-05-20T03:17:32.382Z,85.70
2023-05-20T03:20:17.905Z,85.30
2023-05-20T03:23:04.092Z,85.40
2023-05-20T03:25:49.611Z,85.60
2023-05-20T03:28:36.131Z,86.10
2023-05-20T03:31:21.667Z,86.50
2023-05-20T03:34:07.961Z,86.30
2023-05-20T03:36:55.117Z,86.60
2023-05-20T03:39:43.441Z,87.00
2023-05-20T03:42:28.830Z,87.20
2023-05-20T03:45:15.088Z,87.20
2023-05-20T03:48:08.326Z,87.00
2023-05-20T03:50:55.072Z,86.60
2023-05-20T03:53:41.879Z,86.60
2023-05-20T03:56:30.353Z,86.70
2023-05-20T03:59:16.469Z,87.00
2023-05-20T04:02:01.599Z,87.00
2023-05-20T04:04:47.376Z,86.60
2023-05-20T04:07:32.673Z,87.20
2023-05-20T04:10:20.872Z,87.00
2023-05-20T04:13:06.888Z,86.60
2023-05-20T04:15:56.064Z,86.60
2023-05-20T04:18:42.126Z,87.00
2023-05-20T04:21:28.237Z,87.50
2023-05-20T04:24:13.806Z,87.40
2023-05-20T04:26:59.581Z,87.60
2023-05-20T04:29:47.511Z,87.70
2023-05-20T04:32:37.133Z,87.60
2023-05-20T04:35:26.167Z,87.40
2023-05-20T04:38:13.947Z,87.40
2023-05-20T04:41:00.309Z,87.30
2023-05-20T04:43:45.972Z,87.20
2023-05-20T04:46:31.791Z,87.30
2023-05-20T04:49:20.116Z,87.10
2023-05-20T04:52:06.024Z,87.00
2023-05-20T04:54:51.224Z,87.10
2023-05-20T04:57:39.852Z,87.20
2023-05-20T05:00:25.133Z,86.70
2023-05-20T05:03:13.071Z,86.20
2023-05-20T05:05:59.491Z,85.80
2023-05-20T05:08:47.475Z,85.40
2023-05-20T05:11:34.048Z,84.90
2023-05-20T05:14:19.645Z,84.60
2023-05-20T05:17:05.386Z,84.30
2023-05-20T05:19:50.672Z,84.50
2023-05-20T05:22:37.049Z,84.10
2023-05-20T05:25:22.643Z,83.70
2023-05-20T05:28:07.919Z,83.50
2023-05-20T05:30:57.344Z,83.40
2023-05-20T05:33:42.814Z,83.40
2023-05-20T05:36:28.594Z,83.30
2023-05-20T05:39:14.428Z,83.50
2023-05-20T05:42:00.238Z,83.00
2023-05-20T05:44:46.004Z,81.90
2023-05-20T05:47:32.988Z,81.00
2023-05-20T05:50:19.290Z,81.00
2023-05-20T05:53:04.860Z,81.20
2023-05-20T05:55:51.548Z,81.20
2023-05-20T05:58:40.204Z,80.80
2023-05-20T06:01:26.651Z,80.20
2023-05-20T06:04:12.487Z,80.30
2023-05-20T06:06:58.765Z,80.20
2023-05-20T06:09:44.661Z,80.20
2023-05-20T06:12:30.148Z,80.10
2023-05-20T06:15:15.500Z,80.10
2023-05-20T06:18:00.883Z,79.70
2023-05-20T06:20:46.494Z,79.90
2023-05-20T06:23:32.087Z,79.60
2023-05-20T06:26:21.464Z,79.50
2023-05-20T06:29:07.016Z,79.60
2023-05-20T06:31:52.489Z,79.60
2023-05-20T06:34:38.052Z,79.80
2023-05-20T06:37:26.390Z,79.90
2023-05-20T06:40:13.111Z,80.20
2023-05-20T06:42:59.247Z,80.00
2023-05-20T06:46:12.090Z,80.10
2023-05-20T06:49:03.311Z,80.00
2023-05-20T06:51:48.987Z,80.80
2023-05-20T06:54:39.880Z,79.70
2023-05-20T06:57:29.449Z,79.90
2023-05-20T07:00:15.326Z,79.90
2023-05-20T07:03:01.659Z,79.90
2023-05-20T07:05:47.034Z,79.80
2023-05-20T07:08:32.954Z,79.70
2023-05-20T07:11:21.677Z,79.50
2023-05-20T07:14:08.588Z,79.40
2023-05-20T07:16:56.858Z,79.20
2023-05-20T07:19:43.271Z,79.00
2023-05-20T07:22:29.059Z,78.90
2023-05-20T07:25:21.498Z,78.50
2023-05-20T07:28:08.060Z,78.20
2023-05-20T07:30:57.978Z,78.00
2023-05-20T07:33:45.909Z,78.00
2023-05-20T07:36:32.348Z,77.70
2023-05-20T07:39:22.122Z,78.10
2023-05-20T07:42:07.896Z,77.40
2023-05-20T07:44:53.978Z,77.00
2023-05-20T07:47:43.518Z,76.40
2023-05-20T07:50:28.839Z,76.40
2023-05-20T07:53:14.201Z,75.70
2023-05-20T07:55:59.778Z,74.90
2023-05-20T07:58:53.781Z,75.00
2023-05-20T08:01:45.971Z,75.00
2023-05-20T08:04:36.035Z,74.60
2023-05-20T08:07:22.333Z,74.60
2023-05-20T08:10:12.214Z,74.40
2023-05-20T08:12:58.248Z,74.00
2023-05-20T08:15:43.681Z,74.10
2023-05-20T08:18:29.613Z,73.70
2023-05-20T08:21:17.706Z,74.00
2023-05-20T08:24:05.670Z,73.70
2023-05-20T08:26:52.986Z,72.70
2023-05-20T08:29:44.598Z,71.60
2023-05-20T08:32:30.033Z,71.90
2023-05-20T08:35:15.615Z,71.20
2023-05-20T08:38:02.311Z,70.50
2023-05-20T08:40:53.536Z,69.70
2023-05-20T08:43:39.621Z,69.40
2023-05-20T08:46:26.259Z,67.80
2023-05-20T08:49:14.287Z,67.40
2023-05-20T08:52:01.319Z,66.60
2023-05-20T08:54:49.662Z,66.50
2023-05-20T08:57:36.931Z,65.60
2023-05-20T09:00:27.524Z,65.60
2023-05-20T09:03:12.846Z,64.90
2023-05-20T09:06:09.255Z,60.40
2023-05-20T09:08:54.695Z,60.40
2023-05-20T09:11:41.642Z,60.00
2023-05-20T09:14:30.221Z,57.70
2023-05-20T09:17:25.206Z,56.90
2023-05-20T09:20:11.177Z,56.40
2023-05-20T09:23:04.702Z,55.60
2023-05-20T09:25:54.204Z,55.20
2023-05-20T09:28:41.228Z,54.90
2023-05-20T09:31:34.147Z,55.10
2023-05-20T09:34:21.373Z,54.40
2023-05-20T09:37:08.792Z,54.30
2023-05-20T09:40:01.057Z,54.10
2023-05-20T09:42:53.224Z,54.00
2023-05-20T09:45:38.989Z,53.50
2023-05-20T09:48:25.601Z,52.50
2023-05-20T09:51:11.976Z,52.10
2023-05-20T09:53:58.747Z,51.90
2023-05-20T09:56:46.643Z,51.40
2023-05-20T09:59:33.567Z,50.30
2023-05-20T10:02:20.583Z,50.10
2023-05-20T10:05:11.624Z,50.50
2023-05-20T10:08:16.841Z,50.00
2023-05-20T10:11:08.304Z,49.00
2023-05-20T10:14:30.740Z,48.60
2023-05-20T10:17:51.949Z,47.90
2023-05-20T10:20:48.049Z,47.80
2023-05-20T10:23:33.481Z,47.80
2023-05-20T10:26:19.827Z,45.60
2023-05-20T10:29:18.532Z,45.00
2023-05-20T10:32:05.262Z,45.10
2023-05-20T10:34:53.598Z,45.20
2023-05-20T10:37:44.217Z,44.70
2023-05-20T10:40:29.380Z,44.20
2023-05-20T10:43:27.112Z,44.00
2023-05-20T10:46:32.578Z,43.40
2023-05-20T10:49:27.124Z,43.80
2023-05-20T10:52:20.241Z,43.20
2023-05-20T10:55:06.454Z,42.20
2023-05-20T10:57:52.034Z,42.00
2023-05-20T11:00:39.153Z,41.80
2023-05-20T11:03:26.106Z,42.20
2023-05-20T11:06:18.393Z,41.50
2023-05-20T11:09:06.690Z,43.00
2023-05-20T11:11:53.392Z,46.00
2023-05-20T11:14:39.000Z,46.60
2023-05-20T11:17:24.268Z,46.10
2023-05-20T11:20:14.401Z,38.50
2023-05-20T11:22:59.840Z,36.20
2023-05-20T11:25:45.557Z,34.90
2023-05-20T11:28:33.242Z,33.80
2023-05-20T11:31:19.239Z,33.10
2023-05-20T11:34:04.663Z,32.70
2023-05-20T11:36:59.615Z,32.70
2023-05-20T11:39:44.984Z,29.90
2023-05-20T11:42:32.638Z,30.70
2023-05-20T11:45:18.148Z,29.60
2023-05-20T11:48:05.408Z,28.80
2023-05-20T11:50:53.276Z,29.10
2023-05-20T11:53:47.197Z,29.60
2023-05-20T11:56:41.467Z,29.40
2023-05-20T11:59:27.431Z,28.20
2023-05-20T12:02:15.346Z,28.70
2023-05-20T12:05:03.480Z,28.20
2023-05-20T12:07:49.405Z,27.70
2023-05-20T12:10:35.494Z,28.00
2023-05-20T12:13:21.353Z,28.10
2023-05-20T12:16:07.139Z,27.50
2023-05-20T12:18:52.463Z,26.70
2023-05-20T12:21:37.936Z,26.70
2023-05-20T12:24:23.437Z,27.50
2023-05-20T12:27:09.009Z,28.50
2023-05-20T12:29:54.224Z,28.10
2023-05-20T12:32:39.933Z,28.60
2023-05-20T12:35:36.227Z,27.50
2023-05-20T12:38:21.482Z,27.60
2023-05-20T12:41:07.260Z,28.10
2023-05-20T12:43:54.752Z,29.20
2023-05-20T12:46:40.462Z,29.50
2023-05-20T12:49:26.020Z,29.90
2023-05-20T12:52:21.908Z,30.30
2023-05-20T12:55:13.905Z,29.20
2023-05-20T12:57:59.571Z,29.10
2023-05-20T13:00:48.012Z,28.50
2023-05-20T13:03:33.554Z,27.70
2023-05-20T13:06:18.815Z,27.20
2023-05-20T13:09:04.312Z,27.10
2023-05-20T13:11:50.022Z,26.90
2023-05-20T13:14:35.512Z,27.30
2023-05-20T13:17:21.162Z,26.90
2023-05-20T13:20:07.846Z,26.60
2023-05-20T13:22:55.685Z,26.00
2023-05-20T13:25:41.145Z,26.10
2023-05-20T13:28:26.302Z,26.70
2023-05-20T13:31:11.980Z,27.30
2023-05-20T13:34:00.468Z,27.60
2023-05-20T13:36:47.795Z,27.30
2023-05-20T13:39:33.040Z,26.80
2023-05-20T13:42:22.648Z,26.80
2023-05-20T13:45:08.266Z,26.70
2023-05-20T13:47:53.899Z,26.80
2023-05-20T13:50:39.265Z,27.80
2023-05-20T13:53:24.693Z,28.50
2023-05-20T13:56:10.449Z,28.90
2023-05-20T13:58:56.040Z,29.10
2023-05-20T14:01:45.522Z,28.70
2023-05-20T14:04:31.511Z,29.00
2023-05-20T14:07:17.041Z,29.50
2023-05-20T14:10:02.677Z,29.50
2023-05-20T14:12:48.348Z,29.40
2023-05-20T14:15:33.844Z,29.00
2023-05-20T14:18:19.602Z,27.90
2023-05-20T14:21:05.538Z,26.50
2023-05-20T14:23:51.373Z,25.90
2023-05-20T14:26:44.968Z,25.80
2023-05-20T14:29:30.417Z,24.70
2023-05-20T14:32:15.912Z,23.30
2023-05-20T14:35:01.380Z,23.60
2023-05-20T14:37:47.437Z,24.20
2023-05-20T14:40:33.048Z,24.80
2023-05-20T14:43:18.830Z,25.20
2023-05-20T14:46:10.140Z,25.10
2023-05-20T14:48:55.773Z,25.00
2023-05-20T14:51:42.289Z,25.50
2023-05-20T14:54:27.758Z,26.10
2023-05-20T14:57:13.332Z,26.40
2023-05-20T14:59:58.601Z,27.10
2023-05-20T15:02:45.149Z,27.60
2023-05-20T15:05:33.531Z,27.60
2023-05-20T15:08:19.132Z,27.40
2023-05-20T15:11:04.525Z,27.00
2023-05-20T15:13:51.266Z,27.00
2023-05-20T15:16:36.944Z,27.10
2023-05-20T15:19:22.863Z,27.10
2023-05-20T15:22:08.372Z,27.50
2023-05-20T15:24:53.859Z,27.40
2023-05-20T15:27:40.484Z,27.60
2023-05-20T15:30:26.141Z,27.60
2023-05-20T15:33:16.823Z,27.10
2023-05-20T15:36:02.431Z,26.70
2023-05-20T15:38:47.628Z,26.60
2023-05-20T15:41:33.370Z,26.60
2023-05-20T15:44:19.164Z,26.60
2023-05-20T15:47:06.043Z,26.60
2023-05-20T15:49:52.066Z,25.70
2023-05-20T15:52:40.257Z,24.70
2023-05-20T15:55:25.928Z,23.50
2023-05-20T15:58:14.774Z,23.60
2023-05-20T16:01:00.137Z,24.20
2023-05-20T16:03:45.595Z,25.60
2023-05-20T16:06:31.532Z,27.20
2023-05-20T16:09:17.045Z,28.40
2023-05-20T16:12:03.050Z,28.60
2023-05-20T16:14:50.413Z,29.10
2023-05-20T16:17:37.646Z,30.30
2023-05-20T16:20:23.167Z,31.20
2023-05-20T16:23:08.775Z,31.30
2023-05-20T16:25:54.393Z,30.90
2023-05-20T16:28:39.988Z,30.70
2023-05-20T16:31:27.801Z,30.70
2023-05-20T16:34:14.304Z,29.50
2023-05-20T16:37:02.848Z,29.50
2023-05-20T16:39:48.393Z,28.90
2023-05-20T16:42:34.022Z,28.60
2023-05-20T16:45:19.327Z,28.10
2023-05-20T16:48:05.116Z,27.80
2023-05-20T16:50:50.544Z,28.50
2023-05-20T16:53:36.535Z,28.60
2023-05-20T16:56:23.030Z,28.20
2023-05-20T16:59:08.120Z,28.10
2023-05-20T17:01:53.688Z,28.50
2023-05-20T17:04:39.087Z,28.70
2023-05-20T17:07:24.488Z,28.70
2023-05-20T17:10:10.176Z,29.10
2023-05-20T17:12:58.232Z,29.70
2023-05-20T17:15:43.625Z,30.00
2023-05-20T17:18:29.011Z,30.30
2023-05-20T17:21:15.775Z,30.70
2023-05-20T17:24:01.393Z,31.80
2023-05-20T17:26:46.812Z,32.70
2023-05-20T17:29:32.293Z,32.80
2023-05-20T17:32:18.030Z,32.80
2023-05-20T17:35:03.419Z,33.10
2023-05-20T17:37:48.770Z,33.40
2023-05-20T17:40:34.659Z,33.80
2023-05-20T17:43:20.941Z,33.90
2023-05-20T17:46:06.420Z,33.80
2023-05-20T17:48:51.869Z,34.20
2023-05-20T17:51:37.596Z,34.90
2023-05-20T17:54:23.265Z,35.30
2023-05-20T17:57:09.375Z,35.20
2023-05-20T17:59:55.350Z,35.30
2023-05-20T18:02:46.128Z,35.40
2023-05-20T18:05:31.743Z,35.80
2023-05-20T18:08:19.082Z,35.70
2023-05-20T18:11:04.551Z,36.30
2023-05-20T18:13:50.004Z,36.80
2023-05-20T18:16:38.286Z,37.10
2023-05-20T18:19:24.785Z,38.20
2023-05-20T18:22:12.604Z,40.20
2023-05-20T18:24:58.002Z,41.60
2023-05-20T18:27:44.048Z,41.80
2023-05-20T18:30:29.767Z,42.30
2023-05-20T18:33:15.162Z,42.40
2023-05-20T18:36:03.957Z,42.90
2023-05-20T18:38:52.104Z,43.20
2023-05-20T18:41:46.693Z,43.50
2023-05-20T18:44:32.508Z,44.20
2023-05-20T18:47:18.560Z,44.20
2023-05-20T18:50:04.438Z,45.20
2023-05-20T18:52:52.352Z,46.10
2023-05-20T18:55:37.852Z,46.50
2023-05-20T18:58:23.453Z,47.40
2023-05-20T19:01:08.786Z,48.20
2023-05-20T19:03:54.536Z,49.50
2023-05-20T19:06:40.541Z,51.50
2023-05-20T19:09:26.279Z,52.90
2023-05-20T19:12:11.572Z,54.00
2023-05-20T19:14:57.442Z,55.30
2023-05-20T19:17:42.890Z,56.20
2023-05-20T19:20:28.300Z,56.90
2023-05-20T19:23:13.957Z,57.80
2023-05-20T19:25:59.202Z,58.80
2023-05-20T19:28:44.761Z,59.70
2023-05-20T19:31:30.559Z,60.00
2023-05-20T19:34:16.328Z,60.90
2023-05-20T19:37:04.743Z,61.50
2023-05-20T19:39:50.192Z,62.70
2023-05-20T19:42:35.375Z,63.70
2023-05-20T19:45:21.991Z,64.50
2023-05-20T19:48:08.039Z,65.20
2023-05-20T19:50:53.841Z,66.10
2023-05-20T19:53:39.397Z,66.70
2023-05-20T19:56:33.605Z,67.20
2023-05-20T19:59:19.731Z,67.50
2023-05-20T20:02:06.842Z,67.80
2023-05-20T20:04:52.646Z,68.10
2023-05-20T20:07:38.063Z,68.40
2023-05-20T20:10:23.964Z,68.50
2023-05-20T20:13:10.837Z,68.70
2023-05-20T20:15:56.669Z,68.80
2023-05-20T20:18:42.548Z,68.80
2023-05-20T20:21:28.092Z,69.20
2023-05-20T20:24:13.468Z,69.70
2023-05-20T20:26:59.786Z,70.00
2023-05-20T20:29:44.938Z,70.20
2023-05-20T20:32:30.652Z,70.50
2023-05-20T20:35:16.131Z,70.30
2023-05-20T20:38:08.493Z,70.50
2023-05-20T20:40:55.147Z,70.70
2023-05-20T20:43:42.828Z,70.90
2023-05-20T20:46:28.684Z,70.60
2023-05-20T20:49:13.935Z,71.10
2023-05-20T20:51:59.521Z,71.50
2023-05-20T20:54:45.336Z,71.80
2023-05-20T20:57:35.097Z,72.20
2023-05-20T21:00:23.329Z,72.30
2023-05-20T21:03:08.566Z,72.50
2023-05-20T21:05:53.932Z,72.70
2023-05-20T21:08:39.840Z,72.70
2023-05-20T21:11:28.199Z,72.80
2023-05-20T21:14:13.690Z,72.70
2023-05-20T21:16:59.355Z,73.00
2023-05-20T21:19:47.320Z,73.40
2023-05-20T21:22:32.994Z,73.80
2023-05-20T21:25:18.674Z,73.70
2023-05-20T21:28:03.969Z,74.50
2023-05-20T21:30:49.860Z,73.70
2023-05-20T21:33:35.162Z,74.10
2023-05-20T21:36:21.999Z,74.50
2023-05-20T21:39:07.655Z,74.70
2023-05-20T21:41:53.172Z,74.80
2023-05-20T21:44:41.613Z,75.10
2023-05-20T21:47:27.123Z,75.00
2023-05-20T21:50:12.598Z,75.00
2023-05-20T21:52:58.148Z,75.30
2023-05-20T21:55:43.511Z,75.30
2023-05-20T21:58:29.117Z,75.30
2023-05-20T22:01:14.690Z,75.30
2023-05-20T22:04:00.253Z,75.20
2023-05-20T22:06:48.754Z,75.40
2023-05-20T22:09:34.129Z,75.60
2023-05-20T22:12:20.859Z,75.50
2023-05-20T22:15:07.109Z,75.30
2023-05-20T22:17:52.809Z,75.20
2023-05-20T22:20:38.595Z,75.60
2023-05-20T22:23:23.901Z,75.70
2023-05-20T22:26:09.947Z,75.60
2023-05-20T22:28:55.717Z,75.70
2023-05-20T22:31:41.640Z,75.80
2023-05-20T22:34:27.445Z,76.00
2023-05-20T22:37:12.897Z,76.30
2023-05-20T22:40:01.372Z,76.40
2023-05-20T22:42:46.789Z,76.30
2023-05-20T22:45:32.765Z,76.40
2023-05-20T22:48:22.821Z,76.60
2023-05-20T22:51:09.161Z,77.00
2023-05-20T22:53:56.066Z,77.00
2023-05-20T22:56:41.664Z,77.20
2023-05-20T22:59:32.947Z,77.10
2023-05-20T23:02:18.654Z,76.90
2023-05-20T23:05:04.218Z,77.00
2023-05-20T23:07:52.594Z,76.80
2023-05-20T23:10:38.296Z,76.70
2023-05-20T23:13:23.888Z,76.80
2023-05-20T23:16:09.615Z,76.90
2023-05-20T23:18:55.441Z,76.80
2023-05-20T23:21:40.903Z,76.40
2023-05-20T23:24:27.150Z,76.10
2023-05-20T23:27:12.393Z,76.00
2023-05-20T23:29:58.452Z,75.80
2023-05-20T23:32:44.125Z,75.30
2023-05-20T23:35:30.043Z,75.00
2023-05-20T23:38:16.833Z,74.80
2023-05-20T23:41:02.277Z,74.70
2023-05-20T23:43:47.992Z,74.40
2023-05-20T23:46:33.461Z,74.20
2023-05-20T23:49:22.398Z,73.90
2023-05-20T23:52:07.725Z,73.70
2023-05-20T23:54:53.376Z,73.60
2023-05-20T23:57:39.123Z,73.60
